<?xml version="1.0" encoding="UTF-8" standalone="no" ?>
<gpx xmlns="http://www.topografix.com/GPX/1/1" xmlns:xsi="http://www.w3.org/2001/XMLSchema-instance" xsi:schemaLocation="http://www.topografix.com/GPX/1/1 http://www.topografix.com/GPX/1/1/gpx.xsd" version="1.1" creator="VisuGPX - https://www.visugpx.com">
  <metadata>
    <name>Le Baou Rouge</name>
  </metadata>
  <trk>
    <name><![CDATA[--Puget-sur-Argens-- OR-5527582:Le baou rouge]]></name>
    <trkseg>
      <trkpt lat="43.49679" lon="6.69596">
        <ele>71</ele>
        <time>2015-12-17T14:30:47Z</time>
      </trkpt>
      <trkpt lat="43.4985" lon="6.69655">
        <ele>73</ele>
        <time>2015-12-17T14:32:47Z</time>
      </trkpt>
      <trkpt lat="43.49875" lon="6.6961">
        <ele>75</ele>
        <time>2015-12-17T14:34:47Z</time>
      </trkpt>
      <trkpt lat="43.4991" lon="6.69557">
        <ele>76</ele>
        <time>2015-12-17T14:36:47Z</time>
      </trkpt>
      <trkpt lat="43.49947" lon="6.69505">
        <ele>76</ele>
        <time>2015-12-17T14:38:47Z</time>
      </trkpt>
      <trkpt lat="43.49973" lon="6.69478">
        <ele>77</ele>
        <time>2015-12-17T14:40:47Z</time>
      </trkpt>
      <trkpt lat="43.49996" lon="6.69445">
        <ele>77</ele>
        <time>2015-12-17T14:42:47Z</time>
      </trkpt>
      <trkpt lat="43.50023" lon="6.69406">
        <ele>77</ele>
        <time>2015-12-17T14:44:47Z</time>
      </trkpt>
      <trkpt lat="43.50074" lon="6.69346">
        <ele>79</ele>
        <time>2015-12-17T14:46:47Z</time>
      </trkpt>
      <trkpt lat="43.50124" lon="6.69292">
        <ele>80</ele>
        <time>2015-12-17T14:48:47Z</time>
      </trkpt>
      <trkpt lat="43.50155" lon="6.69249">
        <ele>82</ele>
        <time>2015-12-17T14:50:47Z</time>
      </trkpt>
      <trkpt lat="43.50176" lon="6.69223">
        <ele>83</ele>
        <time>2015-12-17T14:52:47Z</time>
      </trkpt>
      <trkpt lat="43.50197" lon="6.69194">
        <ele>84</ele>
        <time>2015-12-17T14:54:47Z</time>
      </trkpt>
      <trkpt lat="43.50249" lon="6.69149">
        <ele>87</ele>
        <time>2015-12-17T14:56:47Z</time>
      </trkpt>
      <trkpt lat="43.50302" lon="6.69118">
        <ele>88</ele>
        <time>2015-12-17T14:58:47Z</time>
      </trkpt>
      <trkpt lat="43.50343" lon="6.69084">
        <ele>89</ele>
        <time>2015-12-17T15:00:47Z</time>
      </trkpt>
      <trkpt lat="43.50355" lon="6.69051">
        <ele>90</ele>
        <time>2015-12-17T15:02:47Z</time>
      </trkpt>
      <trkpt lat="43.50359" lon="6.69005">
        <ele>91</ele>
        <time>2015-12-17T15:04:47Z</time>
      </trkpt>
      <trkpt lat="43.50366" lon="6.68963">
        <ele>91</ele>
        <time>2015-12-17T15:06:47Z</time>
      </trkpt>
      <trkpt lat="43.5038" lon="6.68924">
        <ele>91</ele>
        <time>2015-12-17T15:08:47Z</time>
      </trkpt>
      <trkpt lat="43.50376" lon="6.68888">
        <ele>91</ele>
        <time>2015-12-17T15:10:47Z</time>
      </trkpt>
      <trkpt lat="43.50352" lon="6.68888">
        <ele>89</ele>
        <time>2015-12-17T15:12:47Z</time>
      </trkpt>
      <trkpt lat="43.50357" lon="6.68855">
        <ele>89</ele>
        <time>2015-12-17T15:14:47Z</time>
      </trkpt>
      <trkpt lat="43.50386" lon="6.68764">
        <ele>91</ele>
        <time>2015-12-17T15:16:47Z</time>
      </trkpt>
      <trkpt lat="43.50421" lon="6.68636">
        <ele>93</ele>
        <time>2015-12-17T15:18:47Z</time>
      </trkpt>
      <trkpt lat="43.50462" lon="6.68503">
        <ele>94</ele>
        <time>2015-12-17T15:20:47Z</time>
      </trkpt>
      <trkpt lat="43.50481" lon="6.6843">
        <ele>96</ele>
        <time>2015-12-17T15:22:47Z</time>
      </trkpt>
      <trkpt lat="43.50507" lon="6.68327">
        <ele>97</ele>
        <time>2015-12-17T15:24:47Z</time>
      </trkpt>
      <trkpt lat="43.50531" lon="6.6826">
        <ele>97</ele>
        <time>2015-12-17T15:26:47Z</time>
      </trkpt>
      <trkpt lat="43.50561" lon="6.68162">
        <ele>98</ele>
        <time>2015-12-17T15:28:47Z</time>
      </trkpt>
      <trkpt lat="43.50589" lon="6.68064">
        <ele>100</ele>
        <time>2015-12-17T15:30:47Z</time>
      </trkpt>
      <trkpt lat="43.50619" lon="6.67951">
        <ele>105</ele>
        <time>2015-12-17T15:32:47Z</time>
      </trkpt>
      <trkpt lat="43.50645" lon="6.6793">
        <ele>107</ele>
        <time>2015-12-17T15:34:47Z</time>
      </trkpt>
      <trkpt lat="43.50679" lon="6.67906">
        <ele>109</ele>
        <time>2015-12-17T15:36:47Z</time>
      </trkpt>
      <trkpt lat="43.50702" lon="6.67887">
        <ele>110</ele>
        <time>2015-12-17T15:38:47Z</time>
      </trkpt>
      <trkpt lat="43.50727" lon="6.67851">
        <ele>110</ele>
        <time>2015-12-17T15:40:47Z</time>
      </trkpt>
      <trkpt lat="43.50776" lon="6.6781">
        <ele>112</ele>
        <time>2015-12-17T15:42:47Z</time>
      </trkpt>
      <trkpt lat="43.50841" lon="6.67786">
        <ele>115</ele>
        <time>2015-12-17T15:44:47Z</time>
      </trkpt>
      <trkpt lat="43.50873" lon="6.67803">
        <ele>115</ele>
        <time>2015-12-17T15:46:47Z</time>
      </trkpt>
      <trkpt lat="43.5092" lon="6.67852">
        <ele>122</ele>
        <time>2015-12-17T15:48:47Z</time>
      </trkpt>
      <trkpt lat="43.50955" lon="6.6788">
        <ele>126</ele>
        <time>2015-12-17T15:50:47Z</time>
      </trkpt>
      <trkpt lat="43.50989" lon="6.67899">
        <ele>128</ele>
        <time>2015-12-17T15:52:47Z</time>
      </trkpt>
      <trkpt lat="43.51025" lon="6.67907">
        <ele>127</ele>
        <time>2015-12-17T15:54:47Z</time>
      </trkpt>
      <trkpt lat="43.51054" lon="6.67933">
        <ele>129</ele>
        <time>2015-12-17T15:56:47Z</time>
      </trkpt>
      <trkpt lat="43.51077" lon="6.67981">
        <ele>135</ele>
        <time>2015-12-17T15:58:47Z</time>
      </trkpt>
      <trkpt lat="43.51095" lon="6.68029">
        <ele>141</ele>
        <time>2015-12-17T16:00:47Z</time>
      </trkpt>
      <trkpt lat="43.51127" lon="6.68069">
        <ele>143</ele>
        <time>2015-12-17T16:02:47Z</time>
      </trkpt>
      <trkpt lat="43.51173" lon="6.68133">
        <ele>143</ele>
        <time>2015-12-17T16:04:47Z</time>
      </trkpt>
      <trkpt lat="43.51199" lon="6.68211">
        <ele>145</ele>
        <time>2015-12-17T16:06:47Z</time>
      </trkpt>
      <trkpt lat="43.51206" lon="6.68286">
        <ele>145</ele>
        <time>2015-12-17T16:08:47Z</time>
      </trkpt>
      <trkpt lat="43.51198" lon="6.68339">
        <ele>145</ele>
        <time>2015-12-17T16:10:47Z</time>
      </trkpt>
      <trkpt lat="43.51167" lon="6.68387">
        <ele>146</ele>
        <time>2015-12-17T16:12:47Z</time>
      </trkpt>
      <trkpt lat="43.51142" lon="6.68435">
        <ele>149</ele>
        <time>2015-12-17T16:14:47Z</time>
      </trkpt>
      <trkpt lat="43.51123" lon="6.68493">
        <ele>152</ele>
        <time>2015-12-17T16:16:47Z</time>
      </trkpt>
      <trkpt lat="43.51116" lon="6.6855">
        <ele>152</ele>
        <time>2015-12-17T16:18:47Z</time>
      </trkpt>
      <trkpt lat="43.51137" lon="6.68598">
        <ele>149</ele>
        <time>2015-12-17T16:20:47Z</time>
      </trkpt>
      <trkpt lat="43.51161" lon="6.68672">
        <ele>148</ele>
        <time>2015-12-17T16:22:47Z</time>
      </trkpt>
      <trkpt lat="43.51185" lon="6.68712">
        <ele>150</ele>
        <time>2015-12-17T16:24:47Z</time>
      </trkpt>
      <trkpt lat="43.5119" lon="6.6876">
        <ele>149</ele>
        <time>2015-12-17T16:26:47Z</time>
      </trkpt>
      <trkpt lat="43.51185" lon="6.68856">
        <ele>142</ele>
        <time>2015-12-17T16:28:47Z</time>
      </trkpt>
      <trkpt lat="43.51202" lon="6.68925">
        <ele>141</ele>
        <time>2015-12-17T16:30:47Z</time>
      </trkpt>
      <trkpt lat="43.51216" lon="6.68992">
        <ele>144</ele>
        <time>2015-12-17T16:32:47Z</time>
      </trkpt>
      <trkpt lat="43.51214" lon="6.69032">
        <ele>144</ele>
        <time>2015-12-17T16:34:47Z</time>
      </trkpt>
      <trkpt lat="43.51176" lon="6.69062">
        <ele>140</ele>
        <time>2015-12-17T16:36:47Z</time>
      </trkpt>
      <trkpt lat="43.5115" lon="6.69087">
        <ele>139</ele>
        <time>2015-12-17T16:38:47Z</time>
      </trkpt>
      <trkpt lat="43.51109" lon="6.69089">
        <ele>137</ele>
        <time>2015-12-17T16:40:47Z</time>
      </trkpt>
      <trkpt lat="43.51069" lon="6.69078">
        <ele>135</ele>
        <time>2015-12-17T16:42:47Z</time>
      </trkpt>
      <trkpt lat="43.51027" lon="6.69112">
        <ele>134</ele>
        <time>2015-12-17T16:44:47Z</time>
      </trkpt>
      <trkpt lat="43.50984" lon="6.69117">
        <ele>132</ele>
        <time>2015-12-17T16:46:47Z</time>
      </trkpt>
      <trkpt lat="43.50942" lon="6.69109">
        <ele>131</ele>
        <time>2015-12-17T16:48:47Z</time>
      </trkpt>
      <trkpt lat="43.50919" lon="6.6909">
        <ele>129</ele>
        <time>2015-12-17T16:50:47Z</time>
      </trkpt>
      <trkpt lat="43.50911" lon="6.6904">
        <ele>127</ele>
        <time>2015-12-17T16:52:47Z</time>
      </trkpt>
      <trkpt lat="43.50896" lon="6.68996">
        <ele>126</ele>
        <time>2015-12-17T16:54:47Z</time>
      </trkpt>
      <trkpt lat="43.5086" lon="6.6897">
        <ele>124</ele>
        <time>2015-12-17T16:56:47Z</time>
      </trkpt>
      <trkpt lat="43.50818" lon="6.68963">
        <ele>124</ele>
        <time>2015-12-17T16:58:47Z</time>
      </trkpt>
      <trkpt lat="43.50769" lon="6.68982">
        <ele>123</ele>
        <time>2015-12-17T17:00:47Z</time>
      </trkpt>
      <trkpt lat="43.50733" lon="6.69018">
        <ele>118</ele>
        <time>2015-12-17T17:02:47Z</time>
      </trkpt>
      <trkpt lat="43.50689" lon="6.69011">
        <ele>115</ele>
        <time>2015-12-17T17:04:47Z</time>
      </trkpt>
      <trkpt lat="43.50639" lon="6.69005">
        <ele>109</ele>
        <time>2015-12-17T17:06:47Z</time>
      </trkpt>
      <trkpt lat="43.50606" lon="6.68978">
        <ele>107</ele>
        <time>2015-12-17T17:08:47Z</time>
      </trkpt>
      <trkpt lat="43.50568" lon="6.68947">
        <ele>104</ele>
        <time>2015-12-17T17:10:47Z</time>
      </trkpt>
      <trkpt lat="43.5053" lon="6.68914">
        <ele>102</ele>
        <time>2015-12-17T17:12:47Z</time>
      </trkpt>
      <trkpt lat="43.50543" lon="6.68952">
        <ele>101</ele>
        <time>2015-12-17T17:14:47Z</time>
      </trkpt>
      <trkpt lat="43.50574" lon="6.69004">
        <ele>100</ele>
        <time>2015-12-17T17:16:47Z</time>
      </trkpt>
      <trkpt lat="43.50614" lon="6.69062">
        <ele>104</ele>
        <time>2015-12-17T17:18:47Z</time>
      </trkpt>
      <trkpt lat="43.5063" lon="6.69129">
        <ele>106</ele>
        <time>2015-12-17T17:20:47Z</time>
      </trkpt>
      <trkpt lat="43.50688" lon="6.6926">
        <ele>111</ele>
        <time>2015-12-17T17:22:47Z</time>
      </trkpt>
      <trkpt lat="43.50728" lon="6.69302">
        <ele>111</ele>
        <time>2015-12-17T17:24:47Z</time>
      </trkpt>
      <trkpt lat="43.50822" lon="6.69405">
        <ele>115</ele>
        <time>2015-12-17T17:26:47Z</time>
      </trkpt>
      <trkpt lat="43.50846" lon="6.69465">
        <ele>116</ele>
        <time>2015-12-17T17:28:47Z</time>
      </trkpt>
      <trkpt lat="43.50881" lon="6.69511">
        <ele>120</ele>
        <time>2015-12-17T17:30:47Z</time>
      </trkpt>
      <trkpt lat="43.50899" lon="6.69568">
        <ele>122</ele>
        <time>2015-12-17T17:32:47Z</time>
      </trkpt>
      <trkpt lat="43.50904" lon="6.69607">
        <ele>126</ele>
        <time>2015-12-17T17:34:47Z</time>
      </trkpt>
      <trkpt lat="43.50941" lon="6.69638">
        <ele>128</ele>
        <time>2015-12-17T17:36:47Z</time>
      </trkpt>
      <trkpt lat="43.50953" lon="6.69685">
        <ele>132</ele>
        <time>2015-12-17T17:38:47Z</time>
      </trkpt>
      <trkpt lat="43.50942" lon="6.69744">
        <ele>138</ele>
        <time>2015-12-17T17:40:47Z</time>
      </trkpt>
      <trkpt lat="43.50916" lon="6.69826">
        <ele>139</ele>
        <time>2015-12-17T17:42:47Z</time>
      </trkpt>
      <trkpt lat="43.50888" lon="6.699">
        <ele>136</ele>
        <time>2015-12-17T17:44:47Z</time>
      </trkpt>
      <trkpt lat="43.50859" lon="6.69979">
        <ele>131</ele>
        <time>2015-12-17T17:46:47Z</time>
      </trkpt>
      <trkpt lat="43.50839" lon="6.7003">
        <ele>127</ele>
        <time>2015-12-17T17:48:47Z</time>
      </trkpt>
      <trkpt lat="43.5085" lon="6.70077">
        <ele>127</ele>
        <time>2015-12-17T17:50:47Z</time>
      </trkpt>
      <trkpt lat="43.50883" lon="6.70083">
        <ele>130</ele>
        <time>2015-12-17T17:52:47Z</time>
      </trkpt>
      <trkpt lat="43.50926" lon="6.70103">
        <ele>135</ele>
        <time>2015-12-17T17:54:47Z</time>
      </trkpt>
      <trkpt lat="43.50926" lon="6.70146">
        <ele>136</ele>
        <time>2015-12-17T17:56:47Z</time>
      </trkpt>
      <trkpt lat="43.50939" lon="6.70193">
        <ele>140</ele>
        <time>2015-12-17T17:58:47Z</time>
      </trkpt>
      <trkpt lat="43.50918" lon="6.70215">
        <ele>138</ele>
        <time>2015-12-17T18:00:47Z</time>
      </trkpt>
      <trkpt lat="43.50888" lon="6.70249">
        <ele>136</ele>
        <time>2015-12-17T18:02:47Z</time>
      </trkpt>
      <trkpt lat="43.50849" lon="6.70332">
        <ele>136</ele>
        <time>2015-12-17T18:04:47Z</time>
      </trkpt>
      <trkpt lat="43.50817" lon="6.70385">
        <ele>135</ele>
        <time>2015-12-17T18:06:47Z</time>
      </trkpt>
      <trkpt lat="43.5077" lon="6.70416">
        <ele>134</ele>
        <time>2015-12-17T18:08:47Z</time>
      </trkpt>
      <trkpt lat="43.50749" lon="6.70443">
        <ele>130</ele>
        <time>2015-12-17T18:10:47Z</time>
      </trkpt>
      <trkpt lat="43.5074" lon="6.70508">
        <ele>124</ele>
        <time>2015-12-17T18:12:47Z</time>
      </trkpt>
      <trkpt lat="43.5075" lon="6.70562">
        <ele>120</ele>
        <time>2015-12-17T18:14:47Z</time>
      </trkpt>
      <trkpt lat="43.50744" lon="6.70594">
        <ele>117</ele>
        <time>2015-12-17T18:16:47Z</time>
      </trkpt>
      <trkpt lat="43.50715" lon="6.70613">
        <ele>113</ele>
        <time>2015-12-17T18:18:47Z</time>
      </trkpt>
      <trkpt lat="43.5069" lon="6.70618">
        <ele>111</ele>
        <time>2015-12-17T18:20:47Z</time>
      </trkpt>
      <trkpt lat="43.50671" lon="6.70594">
        <ele>109</ele>
        <time>2015-12-17T18:22:47Z</time>
      </trkpt>
      <trkpt lat="43.50641" lon="6.70601">
        <ele>107</ele>
        <time>2015-12-17T18:24:47Z</time>
      </trkpt>
      <trkpt lat="43.50615" lon="6.70604">
        <ele>106</ele>
        <time>2015-12-17T18:26:47Z</time>
      </trkpt>
      <trkpt lat="43.5058" lon="6.70594">
        <ele>104</ele>
        <time>2015-12-17T18:28:47Z</time>
      </trkpt>
      <trkpt lat="43.50542" lon="6.70567">
        <ele>102</ele>
        <time>2015-12-17T18:30:47Z</time>
      </trkpt>
      <trkpt lat="43.50511" lon="6.7055">
        <ele>100</ele>
        <time>2015-12-17T18:32:47Z</time>
      </trkpt>
      <trkpt lat="43.50473" lon="6.70527">
        <ele>99</ele>
        <time>2015-12-17T18:34:47Z</time>
      </trkpt>
      <trkpt lat="43.50446" lon="6.70507">
        <ele>97</ele>
        <time>2015-12-17T18:36:47Z</time>
      </trkpt>
      <trkpt lat="43.50428" lon="6.70473">
        <ele>96</ele>
        <time>2015-12-17T18:38:47Z</time>
      </trkpt>
      <trkpt lat="43.50419" lon="6.70442">
        <ele>95</ele>
        <time>2015-12-17T18:40:47Z</time>
      </trkpt>
      <trkpt lat="43.50393" lon="6.7042">
        <ele>94</ele>
        <time>2015-12-17T18:42:47Z</time>
      </trkpt>
      <trkpt lat="43.50342" lon="6.7037">
        <ele>93</ele>
        <time>2015-12-17T18:44:47Z</time>
      </trkpt>
      <trkpt lat="43.50291" lon="6.70311">
        <ele>91</ele>
        <time>2015-12-17T18:46:47Z</time>
      </trkpt>
      <trkpt lat="43.50247" lon="6.7026">
        <ele>88</ele>
        <time>2015-12-17T18:48:47Z</time>
      </trkpt>
      <trkpt lat="43.50203" lon="6.70195">
        <ele>88</ele>
        <time>2015-12-17T18:50:47Z</time>
      </trkpt>
      <trkpt lat="43.5016" lon="6.70113">
        <ele>82</ele>
        <time>2015-12-17T18:52:47Z</time>
      </trkpt>
      <trkpt lat="43.50108" lon="6.70005">
        <ele>78</ele>
        <time>2015-12-17T18:54:47Z</time>
      </trkpt>
      <trkpt lat="43.50049" lon="6.699">
        <ele>74</ele>
        <time>2015-12-17T18:56:47Z</time>
      </trkpt>
      <trkpt lat="43.49998" lon="6.69814">
        <ele>70</ele>
        <time>2015-12-17T18:58:47Z</time>
      </trkpt>
      <trkpt lat="43.49953" lon="6.69759">
        <ele>70</ele>
        <time>2015-12-17T19:00:47Z</time>
      </trkpt>
      <trkpt lat="43.49902" lon="6.69704">
        <ele>71</ele>
        <time>2015-12-17T19:02:47Z</time>
      </trkpt>
      <trkpt lat="43.49865" lon="6.69678">
        <ele>72</ele>
        <time>2015-12-17T19:04:47Z</time>
      </trkpt>
      <trkpt lat="43.49823" lon="6.69637">
        <ele>74</ele>
        <time>2015-12-17T19:06:47Z</time>
      </trkpt>
      <trkpt lat="43.49717" lon="6.69621">
        <ele>72</ele>
        <time>2015-12-17T19:08:47Z</time>
      </trkpt>
      <trkpt lat="43.49656" lon="6.69576">
        <ele>71</ele>
        <time>2015-12-17T19:10:47Z</time>
      </trkpt>
    </trkseg>
  </trk>
</gpx>